Nearby METAR Reports

KLNK - Lincoln, Nebraska, USA
Distance from station: WNW 8mi, 13km
Updated: Mon, 25-Jun-2018 6:54am CDT
Overcast
Overcast
 Wind from E
Wind: E 9 mph , 15 km/h
Temperature: 70°F , 21°C
Dew Point: 64°F , 18°C
Humidity: 83%
Barometer: 29.92 inHg , 1013.2 hPa
Clouds: Overcast
Visibility: 10 miles , 16 km
Cloud details: Overcast 1100 ft
2018/06/25 11:54 KLNK 251154Z 09008KT 10SM OVC011 21/18 A2992 RMK AO2 SLP119 T02060183 10233 20200 58000
KAHQ - Wahoo, Nebraska, USA
Distance from station: N 31mi, 49km
Updated: Mon, 25-Jun-2018 6:55am CDT
Partly Cloudy
Partly Cloudy
 Wind from ESE
Wind: ESE 7 mph , 11 km/h
Temperature: 66°F , 19°C
Dew Point: 64°F , 18°C
Humidity: 94%
Barometer: 29.93 inHg , 1013.5 hPa
Clouds: Partly Cloudy
Visibility: 10 miles , 16 km
Cloud details: Partly Cloudy 10000 ft
2018/06/25 11:55 KAHQ 251155Z AUTO 11006KT 10SM SCT100 19/18 A2993 RMK AO2 T01900180 10215 20188
 
KBIE - Beatrice Municip, Nebraska, USA
Distance from station: S 36mi, 57km
Updated: Mon, 25-Jun-2018 6:55am CDT
Light rain, Overcast
Light rain, Overcast
 Wind from SE
Wind: SE 6 mph , 9 km/h
Temperature: 72°F , 22°C
Dew Point: 70°F , 21°C
Humidity: 94%
Barometer: 29.90 inHg , 1012.5 hPa
Summary: Light Rain
Clouds: Overcast
Visibility: 5 miles , 8 km
Cloud details: Overcast 600 ft
2018/06/25 11:55 KBIE 251155Z AUTO 14005KT 5SM -RA OVC006 22/21 A2990 RMK AO2 T02150210 10228 20213
KMLE - Omaha/Millard, Nebraska, USA
Distance from station: NE 39mi, 63km
Updated: Mon, 25-Jun-2018 6:55am CDT
Mostly Cloudy
Mostly Cloudy
 Wind from ESE
Wind: ESE 3 mph , 6 km/h
Temperature: 68°F , 20°C
Dew Point: 66°F , 19°C
Humidity: 94%
Barometer: 29.94 inHg , 1013.9 hPa
Clouds: Mostly Cloudy
Visibility: 10 miles , 16 km
Cloud details: Mostly Cloudy 1300 ft
2018/06/25 11:55 KMLE 251155Z AUTO 11003KT 10SM BKN013 20/19 A2994 RMK AO2 70002 T02020185 10226 20201
 
KPMV - Plattsmouth Muni, Nebraska, USA
Distance from station: ENE 39mi, 63km
Updated: Mon, 25-Jun-2018 6:55am CDT
Partly Cloudy
Partly Cloudy
 Wind from E
Wind: E 5 mph , 7 km/h
Temperature: 66°F , 19°C
Dew Point: 64°F , 18°C
Humidity: 94%
Barometer: 29.94 inHg , 1013.9 hPa
Clouds: Partly Cloudy
Visibility: 10 miles , 16 km
Cloud details: Partly Cloudy 11000 ft
2018/06/25 11:55 KPMV 251155Z AUTO 08004KT 10SM SCT110 19/18 A2994 RMK AO2 T01870180 10207 20182
KAFK - Nebraska City, Nebraska, USA
Distance from station: ESE 43mi, 69km
Updated: Mon, 25-Jun-2018 6:55am CDT
Partly Cloudy
Partly Cloudy
 Wind from E
Wind: E 6 mph , 9 km/h
Temperature: 66°F , 19°C
Dew Point: 66°F , 19°C
Humidity: 100%
Barometer: 29.93 inHg , 1013.5 hPa
Clouds: Partly Cloudy
Visibility: 10 miles , 16 km
Cloud details: Partly Cloudy 12000 ft
2018/06/25 11:55 KAFK 251155Z AUTO 10005KT 10SM SCT120 19/19 A2993 RMK AO2 T01870187 10205 20185
 
KOFF - Offutt Afb/Belle, Nebraska, USA
Distance from station: ENE 44mi, 70km
Updated: Mon, 25-Jun-2018 6:56am CDT
Clear
Clear
 Wind from E
Wind: E 7 mph , 11 km/h
Temperature: 66°F , 19°C
Dew Point: 64°F , 18°C
Humidity: 94%
Barometer: 29.93 inHg , 1013.5 hPa
Clouds: Clear
Visibility: 10 miles , 16 km
2018/06/25 11:56 KOFF 251156Z AUTO 08006KT 10SM CLR 19/18 A2993 RMK AO2 SLP132 60000 T01940180 10204 20188 55000 $
KFET - Fremont Muni Arp, Nebraska, USA
Distance from station: N 46mi, 74km
Updated: Mon, 25-Jun-2018 6:55am CDT
Partly Cloudy
Partly Cloudy
 Wind from ESE
Wind: ESE 7 mph , 11 km/h
Temperature: 68°F , 20°C
Dew Point: 66°F , 19°C
Humidity: 94%
Barometer: 29.94 inHg , 1013.9 hPa
Clouds: Partly Cloudy
Visibility: 10 miles , 16 km
Cloud details: Partly Cloudy 6000 ft
Partly Cloudy 7500 ft
2018/06/25 11:55 KFET 251155Z AUTO 11006KT 10SM SCT060 SCT075 20/19 A2994 RMK AO2 T01960185 10217 20195
 
KBTA - Blair Muni, Nebraska, USA
Distance from station: NNE 51mi, 82km
Updated: Mon, 25-Jun-2018 6:55am CDT
Partly Cloudy
Partly Cloudy
 Wind from E
Wind: E 8 mph , 13 km/h
Temperature: 68°F , 20°C
Dew Point: 64°F , 18°C
Humidity: 88%
Barometer: 29.94 inHg , 1013.9 hPa
Clouds: Partly Cloudy
Visibility: 10 miles , 16 km
Cloud details: Partly Cloudy 1200 ft
Partly Cloudy 4000 ft
2018/06/25 11:55 KBTA 251155Z AUTO 10007KT 10SM SCT012 SCT040 20/18 A2994 RMK AO2 T01950181 10215 20187
KJYR - York, Nebraska, USA
Distance from station: W 52mi, 84km
Updated: Mon, 25-Jun-2018 6:55am CDT
Mist, Mostly cloudy
Mist, Mostly cloudy
 Wind from SSE
Wind: SSE 8 mph , 13 km/h
Temperature: 68°F , 20°C
Dew Point: 66°F , 19°C
Humidity: 94%
Barometer: 29.91 inHg , 1012.9 hPa
Summary: Mist
Clouds: Mostly Cloudy
Visibility: 6 miles , 10 km
Cloud details: Mostly Cloudy 600 ft
Mostly Cloudy 11000 ft
2018/06/25 11:55 KJYR 251155Z AUTO 15007KT 6SM BR BKN006 BKN110 20/19 A2991 RMK AO2
 
KOMA - Omaha/Eppley, Nebraska, USA
Distance from station: NE 53mi, 85km
Updated: Mon, 25-Jun-2018 6:52am CDT
Overcast
Overcast
 Wind from ESE
Wind: ESE 10 mph , 17 km/h
Temperature: 70°F , 21°C
Dew Point: 64°F , 18°C
Humidity: 83%
Barometer: 29.94 inHg , 1013.9 hPa
Clouds: Overcast
Visibility: 10 miles , 16 km
Cloud details: Mostly Cloudy 1100 ft
Mostly Cloudy 2000 ft
Overcast 13000 ft
2018/06/25 11:52 KOMA 251152Z 11009KT 10SM BKN011 BKN020 OVC130 21/18 A2994 RMK AO2 SLP131 T02060178 10222 20200 56002
KOLU - Columbus Muni, Nebraska, USA
Distance from station: NW 58mi, 93km
Updated: Mon, 25-Jun-2018 6:56am CDT
Overcast
Overcast
 
Temperature: 66°F , 19°C
Dew Point: 64°F , 18°C
Humidity: 94%
Barometer: 29.92 inHg , 1013.2 hPa
Clouds: Overcast
Visibility: 10 miles , 16 km
Cloud details: Overcast 1100 ft
2018/06/25 11:56 KOLU 251156Z AUTO 10SM OVC011 19/18 A2992 RMK AO2 SLP123 6//// 7//// T01890178 10189 20183 56005 PNO $